Time;durP1;ratioP1;P1;durP2;ratioP2;P2;SDS_P1;SDS_P2;PMS_P1;PMS_P2;Temp;Humidity;BMP_temperature;BMP_pressure;BME280_temperature;BME280_humidity;BME280_pressure;Samples;Min_cycle;Max_cycle;Signal;HPM_P1;HPM_P2
2022/08/04 00:01:21;;;;;;;0.37;0.37;;;;;;;21.22;81.52;100263.94;5067563;28;20172;-74
2022/08/04 00:03:54;;;;;;;0.00;0.00;;;;;;;21.23;81.36;100259.97;5064215;28;20179;-75
2022/08/04 00:06:27;;;;;;;0.00;0.00;;;;;;;21.30;81.58;100262.03;5072805;28;20229;-74
2022/08/04 00:08:59;;;;;;;0.00;0.00;;;;;;;21.35;81.68;100265.22;5071886;28;20168;-74
2022/08/04 00:11:30;;;;;;;0.00;0.00;;;;;;;21.41;81.17;100265.69;5072344;28;20173;-74
2022/08/04 00:14:04;;;;;;;0.00;0.00;;;;;;;21.48;81.20;100268.47;5072233;28;20166;-74
2022/08/04 00:16:35;;;;;;;0.00;0.00;;;;;;;21.56;80.47;100272.91;5072194;28;20175;-74
2022/08/04 00:19:03;;;;;;;0.00;0.00;;;;;;;21.63;80.53;100272.13;5071587;28;20527;-74
2022/08/04 00:21:33;;;;;;;0.00;0.00;;;;;;;21.71;80.10;100275.75;5072141;28;20177;-74
2022/08/04 00:24:01;;;;;;;0.00;0.00;;;;;;;21.74;79.85;100274.97;5072090;28;20170;-74
2022/08/04 00:26:26;;;;;;;0.00;0.00;;;;;;;21.80;79.91;100262.25;5072043;28;20192;-74
2022/08/04 00:28:52;;;;;;;0.03;0.03;;;;;;;21.72;79.09;100263.44;5071196;28;20646;-74
2022/08/04 00:31:17;;;;;;;0.00;0.00;;;;;;;21.55;79.64;100267.69;5072123;28;20186;-74
2022/08/04 00:33:47;;;;;;;7.47;6.90;;;;;;;21.38;80.47;100269.22;5071886;28;20189;-74
2022/08/04 00:36:14;;;;;;;0.00;0.00;;;;;;;21.18;81.90;100267.88;5072154;28;20224;-74
2022/08/04 00:38:43;;;;;;;0.00;0.00;;;;;;;21.07;82.74;100263.03;5071065;28;20179;-74
2022/08/04 00:41:25;;;;;;;1.20;0.60;;;;;;;20.97;83.32;100268.50;5071607;28;20584;-74
2022/08/04 00:44:12;;;;;;;0.00;0.00;;;;;;;20.78;84.26;100262.03;5071666;28;20196;-74
2022/08/04 00:46:58;;;;;;;0.00;0.00;;;;;;;20.59;85.33;100264.28;5071362;28;20190;-74
2022/08/04 00:49:53;;;;;;;0.00;0.00;;;;;;;20.45;85.76;100265.72;5071512;28;20175;-74
2022/08/04 00:53:08;;;;;;;0.00;0.00;;;;;;;20.44;86.07;100266.13;5070772;28;20199;-74
2022/08/04 00:55:36;;;;;;;0.00;0.00;;;;;;;20.36;86.48;100265.22;5068574;28;20228;-74
2022/08/04 00:58:01;;;;;;;0.00;0.00;;;;;;;20.39;86.80;100267.22;5065615;28;20200;-74
2022/08/04 01:00:31;;;;;;;0.00;0.00;;;;;;;20.49;87.53;100255.44;5067461;28;20216;-74
2022/08/04 01:03:09;;;;;;;0.00;0.00;;;;;;;20.60;86.96;100257.53;5071485;28;20271;-74
2022/08/04 01:06:05;;;;;;;0.00;0.00;;;;;;;20.63;86.57;100249.22;5071006;28;20166;-74
2022/08/04 01:09:00;;;;;;;0.10;0.10;;;;;;;20.50;86.52;100259.81;5070490;28;20525;-74
2022/08/04 01:12:06;;;;;;;0.00;0.00;;;;;;;20.43;86.72;100245.09;5071243;28;20171;-74
2022/08/04 01:14:43;;;;;;;0.00;0.00;;;;;;;20.33;87.19;100254.88;5071156;28;20248;-74
2022/08/04 01:17:27;;;;;;;0.00;0.00;;;;;;;20.26;87.77;100248.47;5070739;28;20181;-74
2022/08/04 01:19:55;;;;;;;0.00;0.00;;;;;;;20.26;88.05;100240.97;5070782;28;20267;-74
2022/08/04 01:22:33;;;;;;;0.00;0.00;;;;;;;20.32;88.21;100249.72;5070946;28;20177;-74
2022/08/04 01:25:19;;;;;;;0.00;0.00;;;;;;;20.35;86.86;100255.28;5070928;28;20268;-75
2022/08/04 01:28:10;;;;;;;0.17;0.17;;;;;;;20.30;85.19;100257.63;5070498;28;20186;-75
2022/08/04 01:30:39;;;;;;;0.47;0.47;;;;;;;20.16;84.90;100256.31;5069435;28;20589;-74
2022/08/04 01:33:11;;;;;;;0.00;0.00;;;;;;;20.10;84.93;100255.03;5069901;28;20616;-74
2022/08/04 01:35:47;;;;;;;0.00;0.00;;;;;;;20.11;85.46;100253.88;5070552;28;20225;-74
2022/08/04 01:38:33;;;;;;;0.00;0.00;;;;;;;20.01;85.63;100251.00;5069944;28;20227;-74
2022/08/04 01:41:04;;;;;;;2.27;1.73;;;;;;;19.85;86.74;100254.00;5070719;28;20179;-74
2022/08/04 01:43:32;;;;;;;0.00;0.00;;;;;;;19.73;87.97;100251.47;5070722;28;20179;-74
2022/08/04 01:46:03;;;;;;;0.10;0.10;;;;;;;19.66;89.10;100266.03;5070327;28;20190;-74
2022/08/04 01:48:29;;;;;;;0.00;0.00;;;;;;;19.62;90.23;100251.31;5069393;28;20179;-74
2022/08/04 01:51:03;;;;;;;0.00;0.00;;;;;;;19.59;90.65;100246.53;5070581;28;20237;-74
2022/08/04 01:53:31;;;;;;;0.40;0.40;;;;;;;19.50;91.48;100243.22;5070424;28;20221;-74
2022/08/04 01:55:57;;;;;;;0.00;0.00;;;;;;;19.44;92.23;100240.00;5070721;28;20685;-74
2022/08/04 01:58:23;;;;;;;0.53;0.40;;;;;;;19.46;92.58;100234.06;5069729;28;20185;-74
2022/08/04 02:01:01;;;;;;;0.00;0.00;;;;;;;19.52;92.72;100238.09;5070393;28;20179;-74
2022/08/04 02:03:27;;;;;;;0.00;0.00;;;;;;;19.53;92.68;100232.19;5070457;28;20178;-74
2022/08/04 02:06:02;;;;;;;0.00;0.00;;;;;;;19.64;92.46;100240.66;5070319;28;20317;-74
2022/08/04 02:08:45;;;;;;;0.00;0.00;;;;;;;19.74;92.60;100237.22;5069715;28;20193;-74
2022/08/04 02:11:15;;;;;;;0.00;0.00;;;;;;;19.81;92.48;100236.50;5070381;28;20171;-75
2022/08/04 02:13:52;;;;;;;0.00;0.00;;;;;;;19.79;91.50;100233.31;5070287;28;20221;-74
2022/08/04 02:16:29;;;;;;;0.00;0.00;;;;;;;19.77;91.48;100238.44;5070306;28;20178;-74
2022/08/04 02:19:03;;;;;;;0.00;0.00;;;;;;;19.72;91.65;100233.25;5069555;28;20175;-74
2022/08/04 02:21:31;;;;;;;0.00;0.00;;;;;;;19.63;91.84;100236.28;5070234;28;20204;-74
2022/08/04 02:24:01;;;;;;;0.00;0.00;;;;;;;19.50;92.85;100241.25;5070241;28;20181;-74
2022/08/04 02:26:31;;;;;;;0.00;0.00;;;;;;;19.51;93.57;100240.06;5070217;28;20222;-74
2022/08/04 02:29:15;;;;;;;2.90;2.63;;;;;;;19.46;93.56;100229.31;5069859;28;20224;-74
2022/08/04 02:32:03;;;;;;;0.00;0.00;;;;;;;19.48;94.03;100234.50;5070241;28;20175;-74
2022/08/04 02:34:46;;;;;;;0.00;0.00;;;;;;;19.54;94.75;100233.81;5070049;28;20197;-74
2022/08/04 02:37:16;;;;;;;0.00;0.00;;;;;;;19.44;93.70;100230.88;5069968;28;20175;-74
2022/08/04 02:39:43;;;;;;;0.00;0.00;;;;;;;19.38;94.09;100224.06;5069673;28;20186;-74
2022/08/04 02:42:11;;;;;;;0.00;0.00;;;;;;;19.31;94.49;100222.00;5069990;28;20703;-74
2022/08/04 02:44:38;;;;;;;0.00;0.00;;;;;;;19.21;94.88;100220.69;5073667;28;20638;-74
2022/08/04 02:47:05;;;;;;;0.00;0.00;;;;;;;19.19;95.08;100223.03;5073971;28;20591;-73
2022/08/04 02:49:35;;;;;;;0.00;0.00;;;;;;;19.13;95.99;100224.53;5073675;28;20199;-74
2022/08/04 02:52:01;;;;;;;0.00;0.00;;;;;;;19.19;96.10;100213.94;5073929;28;20195;-74
2022/08/04 02:54:30;;;;;;;0.00;0.00;;;;;;;19.22;96.01;100215.94;5073907;28;20652;-74
2022/08/04 02:56:58;;;;;;;0.00;0.00;;;;;;;19.26;95.98;100219.56;5074425;28;20599;-74
2022/08/04 02:59:29;;;;;;;0.00;0.00;;;;;;;19.25;96.06;100226.28;5073286;28;20224;-74
2022/08/04 03:01:56;;;;;;;0.00;0.00;;;;;;;19.35;97.07;100224.81;5074537;28;20172;-74
2022/08/04 03:04:33;;;;;;;0.00;0.00;;;;;;;19.39;95.91;100226.47;5073762;28;20178;-75
2022/08/04 03:07:04;;;;;;;0.00;0.00;;;;;;;19.36;94.70;100218.09;5072352;28;20603;-74
2022/08/04 03:10:04;;;;;;;0.00;0.00;;;;;;;19.35;94.17;100227.59;5073725;28;20257;-74
2022/08/04 03:13:07;;;;;;;0.00;0.00;;;;;;;19.31;94.19;100222.81;5073647;28;20592;-74
2022/08/04 03:16:02;;;;;;;0.00;0.00;;;;;;;19.22;94.30;100221.47;5073405;28;20200;-75
2022/08/04 03:18:36;;;;;;;0.00;0.00;;;;;;;19.17;95.38;100228.16;5072695;28;20266;-74
2022/08/04 03:21:39;;;;;;;0.00;0.00;;;;;;;19.03;96.10;100231.53;5073396;28;20397;-74
2022/08/04 03:24:42;;;;;;;0.00;0.00;;;;;;;18.96;96.74;100225.88;5073375;28;20174;-74
2022/08/04 03:27:25;;;;;;;0.00;0.00;;;;;;;18.94;97.60;100230.19;5072939;28;20174;-74
2022/08/04 03:30:04;;;;;;;0.00;0.00;;;;;;;18.93;98.14;100221.06;5072893;28;20590;-74
2022/08/04 03:32:41;;;;;;;0.20;0.20;;;;;;;18.82;98.43;100220.13;5073510;28;20551;-74
2022/08/04 03:35:16;;;;;;;0.00;0.00;;;;;;;18.82;98.87;100225.69;5072976;28;20206;-74
2022/08/04 03:37:41;;;;;;;0.00;0.00;;;;;;;18.79;99.09;100222.84;5072839;28;20174;-74
2022/08/04 03:40:16;;;;;;;0.00;0.00;;;;;;;18.68;99.36;100220.72;5072544;28;20193;-74
2022/08/04 03:42:47;;;;;;;0.00;0.00;;;;;;;18.61;99.79;100215.03;5072977;28;20205;-74
2022/08/04 03:45:34;;;;;;;0.00;0.00;;;;;;;18.55;100.00;100221.25;5073233;28;20163;-74
2022/08/04 03:48:14;;;;;;;0.00;0.00;;;;;;;18.51;100.00;100217.63;5072485;28;20620;-74
2022/08/04 03:53:56;;;;;;;0.00;0.00;;;;;;;18.60;100.00;100223.69;5072609;28;20277;-74
2022/08/04 03:56:48;;;;;;;0.00;0.00;;;;;;;18.60;100.00;100216.19;5072121;28;20260;-74
2022/08/04 03:59:50;;;;;;;0.00;0.00;;;;;;;18.63;100.00;100221.00;5072379;28;20171;-74
2022/08/04 04:02:36;;;;;;;0.00;0.00;;;;;;;18.65;100.00;100220.63;5072597;28;20170;-74
2022/08/04 04:05:19;;;;;;;0.00;0.00;;;;;;;18.69;100.00;100216.78;5072463;28;20182;-74
2022/08/04 04:08:22;;;;;;;0.00;0.00;;;;;;;18.78;100.00;100219.25;5072202;28;20204;-74
2022/08/04 04:10:50;;;;;;;0.00;0.00;;;;;;;18.85;100.00;100215.81;5072543;28;20206;-74
2022/08/04 04:13:23;;;;;;;0.00;0.00;;;;;;;18.93;100.00;100221.06;5072365;28;20166;-74
2022/08/04 04:16:05;;;;;;;0.00;0.00;;;;;;;19.03;100.00;100217.66;5072210;28;20207;-74
2022/08/04 04:18:41;;;;;;;0.00;0.00;;;;;;;19.12;100.00;100225.72;5071469;28;20175;-74
2022/08/04 04:21:27;;;;;;;0.00;0.00;;;;;;;19.19;98.91;100223.03;5072259;28;20194;-74
2022/08/04 04:24:25;;;;;;;0.00;0.00;;;;;;;19.25;98.60;100229.88;5072151;28;20230;-74
2022/08/04 04:26:58;;;;;;;0.00;0.00;;;;;;;19.30;98.35;100225.97;5065942;28;20195;-74
2022/08/04 04:29:47;;;;;;;0.00;0.00;;;;;;;19.41;98.36;100228.88;5071301;28;20176;-74
2022/08/04 04:32:23;;;;;;;0.00;0.00;;;;;;;19.43;98.08;100232.84;5072086;28;20174;-74
2022/08/04 04:34:54;;;;;;;0.00;0.00;;;;;;;19.42;97.77;100230.47;5071781;28;20605;-74
2022/08/04 04:37:47;;;;;;;0.00;0.00;;;;;;;19.53;97.79;100231.41;5070204;28;20274;-74
2022/08/04 04:40:26;;;;;;;0.00;0.00;;;;;;;19.64;97.20;100224.03;5071537;28;20175;-74
2022/08/04 04:43:22;;;;;;;0.00;0.00;;;;;;;19.70;96.38;100228.06;5071961;28;20184;-74
2022/08/04 04:46:19;;;;;;;0.00;0.00;;;;;;;19.75;96.08;100232.47;5071657;28;20167;-74
2022/08/04 04:49:00;;;;;;;0.00;0.00;;;;;;;19.71;95.57;100235.22;5070927;28;20178;-75
2022/08/04 04:51:38;;;;;;;0.00;0.00;;;;;;;19.85;95.52;100240.13;5071689;28;20548;-74
2022/08/04 04:54:12;;;;;;;0.00;0.00;;;;;;;19.99;94.80;100231.97;5071479;28;20186;-75
2022/08/04 04:57:03;;;;;;;0.00;0.00;;;;;;;20.09;92.99;100227.69;5071305;28;20266;-74
2022/08/04 04:59:33;;;;;;;0.00;0.00;;;;;;;20.10;92.51;100234.81;5062412;28;20590;-74
2022/08/04 05:02:13;;;;;;;0.00;0.00;;;;;;;20.11;92.06;100234.47;5071262;28;20172;-74
2022/08/04 05:04:41;;;;;;;0.00;0.00;;;;;;;20.15;92.29;100234.50;5071165;28;20247;-74
2022/08/04 05:07:44;;;;;;;0.00;0.00;;;;;;;20.15;92.86;100234.50;5070897;28;20662;-74
2022/08/04 05:10:18;;;;;;;0.00;0.00;;;;;;;20.16;93.69;100231.34;5070827;28;20384;-74
2022/08/04 05:13:37;;;;;;;0.00;0.00;;;;;;;20.26;93.14;100229.84;5071104;28;20542;-74
2022/08/04 05:16:09;;;;;;;0.00;0.00;;;;;;;20.26;91.84;100235.41;5028593;28;20243;-74
2022/08/04 05:18:39;;;;;;;0.00;0.00;;;;;;;20.26;90.74;100229.06;5027813;28;20270;-74
2022/08/04 05:21:35;;;;;;;0.00;0.00;;;;;;;20.28;89.57;100235.03;5055614;28;20368;-74
2022/08/04 05:24:05;;;;;;;0.00;0.00;;;;;;;20.35;89.63;100229.53;5069858;28;20620;-74
2022/08/04 05:26:36;;;;;;;0.00;0.00;;;;;;;20.37;89.91;100232.72;5070830;28;20280;-74
2022/08/04 05:29:06;;;;;;;0.00;0.00;;;;;;;20.44;90.04;100236.38;5070444;28;20184;-75
2022/08/04 05:31:35;;;;;;;0.00;0.00;;;;;;;20.52;89.71;100242.78;5070693;28;20175;-74
2022/08/04 05:34:18;;;;;;;0.00;0.00;;;;;;;20.59;89.29;100230.97;5070741;28;20211;-72
2022/08/04 05:36:47;;;;;;;0.00;0.00;;;;;;;20.66;88.66;100229.03;5070468;28;20183;-74
2022/08/04 05:39:18;;;;;;;0.00;0.00;;;;;;;20.74;89.48;100229.88;5070731;28;20269;-73
2022/08/04 05:41:44;;;;;;;0.00;0.00;;;;;;;20.90;90.73;100229.59;5071049;28;20793;-73
2022/08/04 05:44:10;;;;;;;0.00;0.00;;;;;;;20.98;90.42;100226.50;5069388;28;20271;-74
2022/08/04 05:46:36;;;;;;;0.00;0.00;;;;;;;21.13;87.61;100221.81;5070312;28;20244;-76
2022/08/04 05:49:03;;;;;;;0.00;0.00;;;;;;;21.21;87.05;100231.78;5070285;28;20260;-74
2022/08/04 05:51:30;;;;;;;0.00;0.00;;;;;;;21.35;87.25;100219.97;5070484;28;20182;-72
2022/08/04 05:53:57;;;;;;;0.00;0.00;;;;;;;21.59;86.74;100227.63;5070955;28;20268;-73
2022/08/04 05:56:24;;;;;;;0.00;0.00;;;;;;;21.74;84.77;100230.47;5070225;28;20209;-72
2022/08/04 05:58:51;;;;;;;0.00;0.00;;;;;;;21.90;84.28;100228.13;5069798;28;20180;-72
2022/08/04 06:01:18;;;;;;;0.00;0.00;;;;;;;21.95;83.07;100225.72;5070651;28;20180;-73
2022/08/04 06:03:44;;;;;;;0.20;0.20;;;;;;;22.14;83.37;100216.28;5070696;28;20190;-72
2022/08/04 06:06:13;;;;;;;0.00;0.00;;;;;;;22.23;80.87;100218.66;5070445;28;20178;-72
2022/08/04 06:08:38;;;;;;;0.00;0.00;;;;;;;22.22;80.75;100219.84;5069387;28;20220;-72
2022/08/04 06:11:06;;;;;;;0.00;0.00;;;;;;;22.25;80.49;100219.06;5070303;28;20270;-72
2022/08/04 06:13:50;;;;;;;0.00;0.00;;;;;;;22.30;80.18;100215.09;5070325;28;20170;-72
2022/08/04 06:16:18;;;;;;;0.00;0.00;;;;;;;22.32;78.63;100210.72;5066069;28;20198;-72
2022/08/04 06:18:47;;;;;;;0.00;0.00;;;;;;;22.38;75.85;100217.47;5069011;28;20194;-73
2022/08/04 06:21:16;;;;;;;0.00;0.00;;;;;;;22.64;74.49;100207.13;5070970;28;20183;-72
2022/08/04 06:23:42;;;;;;;0.00;0.00;;;;;;;22.85;75.15;100209.91;5070489;28;20182;-72
2022/08/04 06:26:10;;;;;;;0.00;0.00;;;;;;;23.00;73.47;100214.31;5070163;28;20533;-72
2022/08/04 06:28:36;;;;;;;0.00;0.00;;;;;;;23.23;71.57;100218.59;5070277;28;20261;-73
2022/08/04 06:31:04;;;;;;;0.00;0.00;;;;;;;23.41;70.51;100216.53;5070557;28;20175;-73
2022/08/04 06:33:35;;;;;;;0.00;0.00;;;;;;;23.57;68.96;100208.53;5070576;28;20205;-73
2022/08/04 06:36:03;;;;;;;0.00;0.00;;;;;;;23.78;66.79;100209.66;5070686;28;20216;-73
2022/08/04 06:38:30;;;;;;;0.00;0.00;;;;;;;24.02;64.16;100217.88;5070194;28;20190;-72
2022/08/04 06:40:57;;;;;;;0.00;0.00;;;;;;;24.15;63.67;100212.59;5070618;28;20205;-72
2022/08/04 06:43:23;;;;;;;0.10;0.10;;;;;;;24.22;62.44;100208.97;5070527;28;20175;-73
2022/08/04 06:45:49;;;;;;;0.00;0.00;;;;;;;24.31;63.04;100203.75;5070473;28;20174;-71
2022/08/04 06:48:16;;;;;;;0.30;0.30;;;;;;;24.39;61.74;100208.06;5069737;28;20223;-71
2022/08/04 06:50:46;;;;;;;0.00;0.00;;;;;;;24.49;61.43;100211.97;5069160;28;20175;-72
2022/08/04 06:53:12;;;;;;;0.00;0.00;;;;;;;24.52;61.06;100202.78;5070346;28;20190;-73
2022/08/04 06:55:39;;;;;;;0.00;0.00;;;;;;;24.56;62.18;100209.91;5068891;28;20292;-72
2022/08/04 06:58:06;;;;;;;0.00;0.00;;;;;;;24.62;61.28;100207.47;5068634;28;20192;-74
2022/08/04 07:00:33;;;;;;;0.00;0.00;;;;;;;24.75;62.86;100196.59;5069202;28;20186;-73
2022/08/04 07:02:59;;;;;;;0.07;0.07;;;;;;;24.81;62.68;100192.91;5069885;28;20597;-73
2022/08/04 07:05:24;;;;;;;0.00;0.00;;;;;;;24.97;62.54;100197.16;5070210;28;20218;-73
2022/08/04 07:07:50;;;;;;;0.00;0.00;;;;;;;25.11;60.55;100191.44;5070191;28;20257;-73
2022/08/04 07:10:16;;;;;;;0.00;0.00;;;;;;;25.19;60.83;100196.53;5070010;28;20529;-73
2022/08/04 07:12:42;;;;;;;0.00;0.00;;;;;;;25.23;59.86;100193.69;5070185;28;20182;-72
2022/08/04 07:15:10;;;;;;;0.00;0.00;;;;;;;25.34;59.51;100182.41;5069892;28;20206;-72
2022/08/04 07:17:36;;;;;;;0.27;0.27;;;;;;;25.39;59.46;100193.91;5070065;28;20189;-72
2022/08/04 07:20:04;;;;;;;0.00;0.00;;;;;;;25.56;58.48;100182.91;5070181;28;20167;-73
2022/08/04 07:22:30;;;;;;;0.00;0.00;;;;;;;25.71;58.36;100185.13;5069977;28;20181;-72
2022/08/04 07:24:57;;;;;;;0.30;0.30;;;;;;;25.88;58.29;100186.06;5069595;28;20206;-73
2022/08/04 07:27:23;;;;;;;0.00;0.00;;;;;;;26.12;56.47;100177.72;5070008;28;20223;-73
2022/08/04 07:29:49;;;;;;;0.10;0.10;;;;;;;26.21;55.61;100184.38;5070564;28;20175;-72
2022/08/04 07:32:17;;;;;;;0.00;0.00;;;;;;;26.48;55.32;100170.38;5073747;28;20175;-72
2022/08/04 07:34:43;;;;;;;0.00;0.00;;;;;;;26.71;53.64;100179.97;5073960;28;20194;-72
2022/08/04 07:37:08;;;;;;;0.03;0.03;;;;;;;26.76;53.52;100174.66;5073417;28;20227;-72
2022/08/04 07:39:35;;;;;;;0.10;0.10;;;;;;;26.89;52.71;100169.19;5073249;28;20718;-75
2022/08/04 07:42:02;;;;;;;1.40;0.60;;;;;;;27.07;53.21;100169.69;5073376;28;20180;-76
2022/08/04 07:44:31;;;;;;;0.00;0.00;;;;;;;27.21;52.87;100166.63;5073504;28;20181;-73
2022/08/04 07:46:57;;;;;;;0.77;0.60;;;;;;;27.41;52.01;100165.81;5073196;28;20208;-74
2022/08/04 07:49:25;;;;;;;1.20;0.47;;;;;;;27.57;51.46;100163.03;5073429;28;20176;-75
2022/08/04 07:51:51;;;;;;;0.00;0.00;;;;;;;27.66;51.06;100157.66;5071787;28;20209;-75
2022/08/04 07:54:17;;;;;;;0.00;0.00;;;;;;;27.94;50.29;100161.84;5073239;28;20223;-75
2022/08/04 07:56:43;;;;;;;0.00;0.00;;;;;;;28.04;50.14;100157.97;5073052;28;20260;-74
2022/08/04 07:59:08;;;;;;;0.23;0.23;;;;;;;28.21;49.68;100160.78;5073013;28;20330;-74
2022/08/04 08:01:35;;;;;;;0.00;0.00;;;;;;;28.32;47.43;100150.09;5073368;28;20180;-72
2022/08/04 08:04:01;;;;;;;0.10;0.00;;;;;;;28.55;46.22;100151.94;5072941;28;20640;-72
2022/08/04 08:06:28;;;;;;;0.00;0.00;;;;;;;28.66;46.24;100147.59;5072934;28;20188;-72
2022/08/04 08:08:54;;;;;;;0.00;0.00;;;;;;;28.76;45.89;100145.72;5072546;28;20191;-72
2022/08/04 08:11:20;;;;;;;0.00;0.00;;;;;;;28.85;46.64;100137.44;5072977;28;20187;-72
2022/08/04 08:13:45;;;;;;;0.10;0.10;;;;;;;29.00;46.40;100141.47;5072854;28;20180;-72
2022/08/04 08:16:12;;;;;;;0.00;0.00;;;;;;;29.10;44.61;100138.81;5072691;28;20221;-72
2022/08/04 08:18:37;;;;;;;0.63;0.63;;;;;;;29.36;43.46;100131.97;5070925;28;20174;-72
2022/08/04 08:21:03;;;;;;;0.00;0.00;;;;;;;29.61;42.03;100132.03;5072750;28;20171;-72
2022/08/04 08:23:30;;;;;;;0.00;0.00;;;;;;;29.81;41.77;100120.56;5072814;28;20170;-72
2022/08/04 08:25:59;;;;;;;3.10;0.40;;;;;;;29.91;42.29;100121.44;5072014;28;20166;-73
2022/08/04 08:28:25;;;;;;;0.00;0.00;;;;;;;29.98;40.80;100121.22;5072285;28;20636;-72
2022/08/04 08:30:50;;;;;;;0.77;0.77;;;;;;;29.97;40.77;100125.28;5072593;28;20189;-72
2022/08/04 08:33:17;;;;;;;0.17;0.17;;;;;;;30.04;40.07;100121.44;5073126;28;20684;-72
2022/08/04 08:35:51;;;;;;;0.00;0.00;;;;;;;30.14;40.52;100121.13;5072656;28;20220;-72
2022/08/04 08:38:23;;;;;;;0.00;0.00;;;;;;;30.32;40.26;100109.25;5074141;28;20175;-73
2022/08/04 08:40:55;;;;;;;0.00;0.00;;;;;;;30.44;41.07;100116.88;5074495;28;20753;-72
2022/08/04 08:43:35;;;;;;;0.00;0.00;;;;;;;30.61;40.91;100102.59;5072946;28;20186;-72
2022/08/04 08:46:29;;;;;;;0.50;0.50;;;;;;;30.73;40.79;100111.03;5072462;28;20220;-72
2022/08/04 08:49:08;;;;;;;0.00;0.00;;;;;;;30.88;39.64;100100.03;5072192;28;20338;-73
2022/08/04 08:51:48;;;;;;;0.00;0.00;;;;;;;30.88;37.94;100097.22;5072358;28;20607;-73
2022/08/04 08:54:38;;;;;;;0.00;0.00;;;;;;;31.02;37.58;100105.16;5072016;28;20713;-73
2022/08/04 08:57:57;;;;;;;0.00;0.00;;;;;;;31.12;38.62;100096.75;5071938;28;20174;-73
2022/08/04 09:00:46;;;;;;;0.50;0.50;;;;;;;31.29;37.70;100101.72;5028941;28;20283;-73
2022/08/04 09:03:49;;;;;;;0.00;0.00;;;;;;;31.51;38.53;100106.53;5029457;28;20172;-73
2022/08/04 09:06:20;;;;;;;0.23;0.23;;;;;;;31.66;37.11;100104.72;5066460;28;20192;-73
2022/08/04 09:09:11;;;;;;;0.13;0.10;;;;;;;31.71;38.20;100095.66;5070885;28;20172;-72
2022/08/04 09:12:08;;;;;;;0.00;0.00;;;;;;;31.95;37.54;100093.84;5060146;28;20255;-73
2022/08/04 09:14:57;;;;;;;0.00;0.00;;;;;;;31.95;36.58;100099.50;5057320;28;20263;-73
2022/08/04 09:17:31;;;;;;;0.00;0.00;;;;;;;32.13;37.06;100104.44;5051595;28;20170;-72
2022/08/04 09:20:04;;;;;;;0.50;0.50;;;;;;;32.17;35.93;100090.94;5051218;28;20170;-73
2022/08/04 09:22:43;;;;;;;0.00;0.00;;;;;;;32.36;35.41;100094.59;5051173;28;20734;-73
2022/08/04 09:25:32;;;;;;;0.00;0.00;;;;;;;32.30;35.14;100092.88;5066426;28;20521;-73
2022/08/04 09:28:03;;;;;;;0.30;0.30;;;;;;;32.40;34.64;100083.13;5066854;28;20537;-73
2022/08/04 09:30:42;;;;;;;0.23;0.23;;;;;;;32.44;35.24;100078.09;5070310;28;20199;-72
2022/08/04 09:33:19;;;;;;;0.00;0.00;;;;;;;32.53;35.16;100084.53;5049829;28;20205;-72
2022/08/04 09:35:53;;;;;;;0.60;0.57;;;;;;;32.60;34.76;100082.66;5050946;28;20639;-72
2022/08/04 09:38:41;;;;;;;0.47;0.47;;;;;;;32.61;35.19;100079.38;5059207;28;20174;-72
2022/08/04 09:41:12;;;;;;;0.10;0.10;;;;;;;32.64;34.51;100080.47;5068215;28;20189;-72
2022/08/04 09:43:53;;;;;;;0.80;0.80;;;;;;;32.68;34.09;100081.84;5069313;28;20177;-72
2022/08/04 09:46:35;;;;;;;1.07;1.07;;;;;;;32.72;34.84;100081.72;5070806;28;20186;-72
2022/08/04 09:49:08;;;;;;;1.23;1.13;;;;;;;32.70;33.72;100070.09;5070588;28;20178;-72
2022/08/04 09:51:44;;;;;;;0.70;0.70;;;;;;;32.76;34.88;100073.84;5070782;28;20637;-72
2022/08/04 09:54:26;;;;;;;0.50;0.50;;;;;;;32.77;34.25;100064.09;5070310;28;20578;-72
2022/08/04 09:57:00;;;;;;;0.20;0.20;;;;;;;32.87;35.38;100064.91;5070617;28;20426;-72
2022/08/04 09:59:29;;;;;;;0.53;0.53;;;;;;;32.90;34.01;100066.78;5069720;28;20169;-72
2022/08/04 10:01:57;;;;;;;0.73;0.73;;;;;;;32.82;34.47;100060.66;5070620;28;20183;-72
2022/08/04 10:04:25;;;;;;;0.53;0.53;;;;;;;32.81;34.91;100064.75;5070456;28;20207;-72
2022/08/04 10:07:16;;;;;;;0.10;0.00;;;;;;;32.92;34.58;100056.56;5070334;28;20217;-73
2022/08/04 10:10:16;;;;;;;0.00;0.00;;;;;;;33.03;34.57;100054.03;5067844;28;20326;-74
2022/08/04 10:12:50;;;;;;;0.10;0.10;;;;;;;33.17;33.70;100046.13;5070642;28;20216;-74
2022/08/04 10:15:24;;;;;;;0.00;0.00;;;;;;;33.34;33.88;100050.16;5070650;28;20287;-74
2022/08/04 10:18:02;;;;;;;0.00;0.00;;;;;;;33.48;33.27;100035.31;5070566;28;20270;-74
2022/08/04 10:20:47;;;;;;;0.00;0.00;;;;;;;33.60;34.07;100044.88;5070484;28;20175;-73
2022/08/04 10:23:45;;;;;;;0.00;0.00;;;;;;;33.69;33.54;100039.13;5070637;28;20171;-74
2022/08/04 10:27:12;;;;;;;0.00;0.00;;;;;;;33.82;33.88;100033.22;5069870;28;20187;-74
2022/08/04 10:29:43;;;;;;;0.03;0.03;;;;;;;34.04;32.79;100028.09;5026855;28;20186;-74
2022/08/04 10:32:21;;;;;;;0.00;0.00;;;;;;;33.89;33.13;100021.59;5070613;28;20201;-74
2022/08/04 10:35:22;;;;;;;0.30;0.30;;;;;;;33.98;32.59;100032.84;5070608;28;20641;-74
2022/08/04 10:38:15;;;;;;;0.17;0.13;;;;;;;33.93;33.86;100031.47;5070405;28;20175;-74
2022/08/04 10:40:46;;;;;;;0.20;0.20;;;;;;;34.06;34.49;100030.44;5070586;28;20172;-74
2022/08/04 10:43:17;;;;;;;0.00;0.00;;;;;;;33.98;32.92;100032.84;5070463;28;20517;-73
2022/08/04 10:45:55;;;;;;;0.37;0.37;;;;;;;34.01;32.51;100034.72;5070271;28;20199;-74
2022/08/04 10:48:46;;;;;;;0.07;0.07;;;;;;;34.13;33.37;100030.84;5069952;28;20229;-74
2022/08/04 10:51:27;;;;;;;0.00;0.00;;;;;;;33.94;31.92;100030.19;5070153;28;20602;-73
2022/08/04 10:53:58;;;;;;;0.17;0.10;;;;;;;34.03;32.89;100015.19;5070271;28;20638;-72
2022/08/04 10:56:40;;;;;;;0.80;0.80;;;;;;;34.09;32.19;100021.75;5066889;28;20208;-72
2022/08/04 10:59:31;;;;;;;0.20;0.13;;;;;;;34.25;32.08;100017.69;5069971;28;20181;-72
2022/08/04 11:02:07;;;;;;;0.10;0.10;;;;;;;34.08;31.83;100019.41;5062833;28;20297;-74
2022/08/04 11:04:38;;;;;;;0.63;0.50;;;;;;;34.05;32.67;100017.53;5071919;28;20202;-74
2022/08/04 11:07:05;;;;;;;0.57;0.53;;;;;;;34.00;32.82;100016.16;5074207;28;20179;-74
2022/08/04 11:09:32;;;;;;;0.50;0.50;;;;;;;34.07;32.57;100006.47;5073944;28;20303;-74
2022/08/04 11:12:20;;;;;;;0.13;0.13;;;;;;;34.12;32.77;100009.44;5073796;28;20258;-74
2022/08/04 11:14:57;;;;;;;0.10;0.10;;;;;;;34.01;33.17;100009.22;5073704;28;20195;-74
2022/08/04 11:17:34;;;;;;;0.00;0.00;;;;;;;33.89;33.88;99999.69;5073724;28;20170;-74
2022/08/04 11:20:35;;;;;;;0.07;0.07;;;;;;;34.15;33.50;100010.53;5073762;28;20506;-74
2022/08/04 11:23:12;;;;;;;0.00;0.00;;;;;;;34.21;33.07;99995.19;5073651;28;20176;-74
2022/08/04 11:26:26;;;;;;;0.00;0.00;;;;;;;34.39;34.08;100002.00;5072835;28;20181;-74
2022/08/04 11:29:46;;;;;;;0.57;0.57;;;;;;;34.41;32.82;99994.56;5049789;28;20662;-74
2022/08/04 11:32:30;;;;;;;0.00;0.00;;;;;;;34.45;32.74;99995.16;5029778;28;20186;-73
2022/08/04 11:35:00;;;;;;;0.63;0.20;;;;;;;34.59;32.43;99985.09;5072825;28;20594;-74
2022/08/04 11:37:44;;;;;;;16.53;1.30;;;;;;;34.77;32.09;99995.47;5073214;28;20189;-74
2022/08/04 11:40:21;;;;;;;0.30;0.30;;;;;;;34.74;33.27;100002.91;5073256;28;20269;-74
2022/08/04 11:43:05;;;;;;;0.30;0.30;;;;;;;34.91;33.39;99991.09;5073368;28;20176;-75
2022/08/04 11:45:36;;;;;;;1.03;1.03;;;;;;;34.97;32.36;99991.97;5073440;28;20363;-73
2022/08/04 11:48:16;;;;;;;1.23;1.13;;;;;;;34.89;32.71;99995.22;5073026;28;20187;-73
2022/08/04 11:50:50;;;;;;;0.30;0.30;;;;;;;34.88;32.76;99996.47;5073205;28;20180;-74
2022/08/04 11:53:19;;;;;;;0.93;0.80;;;;;;;34.78;31.93;99985.69;5069972;28;20244;-73
2022/08/04 11:55:51;;;;;;;0.60;0.60;;;;;;;34.59;31.73;100000.06;5069022;28;20215;-75
2022/08/04 11:58:17;;;;;;;0.33;0.30;;;;;;;34.43;32.68;99997.72;5071517;28;20262;-74
2022/08/04 12:01:05;;;;;;;0.60;0.60;;;;;;;34.02;31.79;99996.59;5071255;28;20183;-73
2022/08/04 12:03:38;;;;;;;0.17;0.10;;;;;;;34.11;32.51;99990.84;5070312;28;20196;-73
2022/08/04 12:06:09;;;;;;;0.47;0.47;;;;;;;34.04;32.88;99994.06;5070908;28;20201;-73
2022/08/04 12:08:52;;;;;;;0.10;0.10;;;;;;;34.03;33.14;99989.66;5065115;28;20603;-73